sensor_id;sensor_type;location;lat;lon;timestamp;P1;durP1;ratioP1;P2;durP2;ratioP2
4547;SDS011;2286;51.570;7.090;2023-01-28T00:02:02;5.50;;;5.10;;
4547;SDS011;2286;51.570;7.090;2023-01-28T00:04:29;6.28;;;5.78;;
4547;SDS011;2286;51.570;7.090;2023-01-28T00:06:56;6.18;;;5.55;;
4547;SDS011;2286;51.570;7.090;2023-01-28T00:09:23;5.60;;;5.20;;
4547;SDS011;2286;51.570;7.090;2023-01-28T00:11:50;5.50;;;5.00;;
4547;SDS011;2286;51.570;7.090;2023-01-28T00:14:18;5.57;;;5.28;;
4547;SDS011;2286;51.570;7.090;2023-01-28T00:16:45;6.63;;;6.15;;
4547;SDS011;2286;51.570;7.090;2023-01-28T00:19:12;5.35;;;4.97;;
4547;SDS011;2286;51.570;7.090;2023-01-28T00:21:39;4.75;;;4.45;;
4547;SDS011;2286;51.570;7.090;2023-01-28T00:24:07;5.50;;;5.10;;
4547;SDS011;2286;51.570;7.090;2023-01-28T00:26:34;5.85;;;5.35;;
4547;SDS011;2286;51.570;7.090;2023-01-28T00:29:02;5.10;;;4.80;;
4547;SDS011;2286;51.570;7.090;2023-01-28T00:31:30;5.32;;;4.95;;
4547;SDS011;2286;51.570;7.090;2023-01-28T00:33:58;5.55;;;5.03;;
4547;SDS011;2286;51.570;7.090;2023-01-28T00:36:25;4.55;;;4.25;;
4547;SDS011;2286;51.570;7.090;2023-01-28T00:38:53;5.53;;;5.13;;
4547;SDS011;2286;51.570;7.090;2023-01-28T00:41:23;5.05;;;4.65;;
4547;SDS011;2286;51.570;7.090;2023-01-28T00:43:51;4.72;;;4.43;;
4547;SDS011;2286;51.570;7.090;2023-01-28T00:46:19;5.20;;;4.90;;
4547;SDS011;2286;51.570;7.090;2023-01-28T00:48:48;9.73;;;8.40;;
4547;SDS011;2286;51.570;7.090;2023-01-28T00:51:16;8.70;;;8.00;;
4547;SDS011;2286;51.570;7.090;2023-01-28T00:53:44;8.80;;;7.93;;
4547;SDS011;2286;51.570;7.090;2023-01-28T00:56:12;5.63;;;5.13;;
4547;SDS011;2286;51.570;7.090;2023-01-28T00:58:40;5.18;;;4.75;;
4547;SDS011;2286;51.570;7.090;2023-01-28T01:01:09;4.80;;;4.50;;
4547;SDS011;2286;51.570;7.090;2023-01-28T01:03:37;5.07;;;4.60;;
4547;SDS011;2286;51.570;7.090;2023-01-28T01:06:06;4.90;;;4.60;;
4547;SDS011;2286;51.570;7.090;2023-01-28T01:08:33;5.10;;;4.70;;
4547;SDS011;2286;51.570;7.090;2023-01-28T01:11:06;4.05;;;3.85;;
4547;SDS011;2286;51.570;7.090;2023-01-28T01:13:34;4.30;;;4.00;;
4547;SDS011;2286;51.570;7.090;2023-01-28T01:16:02;4.65;;;4.35;;
4547;SDS011;2286;51.570;7.090;2023-01-28T01:18:31;4.70;;;4.40;;
4547;SDS011;2286;51.570;7.090;2023-01-28T01:20:59;5.00;;;4.60;;
4547;SDS011;2286;51.570;7.090;2023-01-28T01:23:29;5.20;;;4.80;;
4547;SDS011;2286;51.570;7.090;2023-01-28T01:25:56;5.03;;;4.72;;
4547;SDS011;2286;51.570;7.090;2023-01-28T01:28:24;5.50;;;5.10;;
4547;SDS011;2286;51.570;7.090;2023-01-28T01:30:57;5.90;;;5.50;;
4547;SDS011;2286;51.570;7.090;2023-01-28T01:33:24;6.60;;;5.50;;
4547;SDS011;2286;51.570;7.090;2023-01-28T01:35:53;5.28;;;4.88;;
4547;SDS011;2286;51.570;7.090;2023-01-28T01:38:20;5.88;;;5.47;;
4547;SDS011;2286;51.570;7.090;2023-01-28T01:40:49;5.85;;;5.45;;
4547;SDS011;2286;51.570;7.090;2023-01-28T01:43:16;7.50;;;6.90;;
4547;SDS011;2286;51.570;7.090;2023-01-28T01:45:44;7.13;;;6.63;;
4547;SDS011;2286;51.570;7.090;2023-01-28T01:48:15;7.60;;;7.00;;
4547;SDS011;2286;51.570;7.090;2023-01-28T01:50:47;8.20;;;7.50;;
4547;SDS011;2286;51.570;7.090;2023-01-28T01:53:19;8.50;;;7.68;;
4547;SDS011;2286;51.570;7.090;2023-01-28T01:55:49;6.65;;;6.05;;
4547;SDS011;2286;51.570;7.090;2023-01-28T01:58:22;6.55;;;5.95;;
4547;SDS011;2286;51.570;7.090;2023-01-28T02:00:51;6.70;;;6.20;;
4547;SDS011;2286;51.570;7.090;2023-01-28T02:03:18;6.78;;;6.25;;
4547;SDS011;2286;51.570;7.090;2023-01-28T02:05:50;6.82;;;6.32;;
4547;SDS011;2286;51.570;7.090;2023-01-28T02:08:18;5.85;;;5.43;;
4547;SDS011;2286;51.570;7.090;2023-01-28T02:10:48;6.57;;;5.90;;
4547;SDS011;2286;51.570;7.090;2023-01-28T02:13:18;8.15;;;7.10;;
4547;SDS011;2286;51.570;7.090;2023-01-28T02:15:48;8.27;;;6.20;;
4547;SDS011;2286;51.570;7.090;2023-01-28T02:18:16;5.82;;;5.43;;
4547;SDS011;2286;51.570;7.090;2023-01-28T02:23:59;5.68;;;5.38;;
4547;SDS011;2286;51.570;7.090;2023-01-28T02:26:55;5.35;;;5.05;;
4547;SDS011;2286;51.570;7.090;2023-01-28T02:29:35;5.60;;;5.10;;
4547;SDS011;2286;51.570;7.090;2023-01-28T02:32:07;6.28;;;5.88;;
4547;SDS011;2286;51.570;7.090;2023-01-28T02:34:41;5.68;;;5.38;;
4547;SDS011;2286;51.570;7.090;2023-01-28T02:37:11;5.50;;;5.10;;
4547;SDS011;2286;51.570;7.090;2023-01-28T02:39:45;6.07;;;5.57;;
4547;SDS011;2286;51.570;7.090;2023-01-28T02:42:14;6.20;;;5.80;;
4547;SDS011;2286;51.570;7.090;2023-01-28T02:44:45;6.45;;;5.95;;
4547;SDS011;2286;51.570;7.090;2023-01-28T02:47:12;6.72;;;6.18;;
4547;SDS011;2286;51.570;7.090;2023-01-28T02:49:58;6.00;;;5.30;;
4547;SDS011;2286;51.570;7.090;2023-01-28T02:52:29;5.55;;;5.15;;
4547;SDS011;2286;51.570;7.090;2023-01-28T02:55:22;7.07;;;6.50;;
4547;SDS011;2286;51.570;7.090;2023-01-28T02:57:58;6.57;;;5.65;;
4547;SDS011;2286;51.570;7.090;2023-01-28T03:00:32;6.28;;;5.88;;
4547;SDS011;2286;51.570;7.090;2023-01-28T03:03:07;7.15;;;6.40;;
4547;SDS011;2286;51.570;7.090;2023-01-28T03:05:41;6.50;;;6.07;;
4547;SDS011;2286;51.570;7.090;2023-01-28T03:08:28;6.28;;;5.80;;
4547;SDS011;2286;51.570;7.090;2023-01-28T03:11:15;7.28;;;6.47;;
4547;SDS011;2286;51.570;7.090;2023-01-28T03:14:00;8.13;;;6.60;;
4547;SDS011;2286;51.570;7.090;2023-01-28T03:16:46;7.65;;;7.00;;
4547;SDS011;2286;51.570;7.090;2023-01-28T03:19:34;6.40;;;5.90;;
4547;SDS011;2286;51.570;7.090;2023-01-28T03:22:19;6.43;;;5.97;;
4547;SDS011;2286;51.570;7.090;2023-01-28T03:25:04;7.60;;;7.00;;
4547;SDS011;2286;51.570;7.090;2023-01-28T03:27:49;7.43;;;6.72;;
4547;SDS011;2286;51.570;7.090;2023-01-28T03:30:38;9.43;;;8.52;;
4547;SDS011;2286;51.570;7.090;2023-01-28T03:33:27;9.70;;;8.90;;
4547;SDS011;2286;51.570;7.090;2023-01-28T03:36:12;9.77;;;9.07;;
4547;SDS011;2286;51.570;7.090;2023-01-28T03:38:57;9.82;;;9.02;;
4547;SDS011;2286;51.570;7.090;2023-01-28T03:41:24;9.70;;;8.98;;
4547;SDS011;2286;51.570;7.090;2023-01-28T03:43:52;10.75;;;9.85;;
4547;SDS011;2286;51.570;7.090;2023-01-28T03:46:20;11.35;;;10.45;;
4547;SDS011;2286;51.570;7.090;2023-01-28T03:48:48;11.13;;;10.07;;
4547;SDS011;2286;51.570;7.090;2023-01-28T03:51:15;10.25;;;9.55;;
4547;SDS011;2286;51.570;7.090;2023-01-28T03:53:42;11.07;;;10.18;;
4547;SDS011;2286;51.570;7.090;2023-01-28T03:56:09;10.55;;;9.75;;
4547;SDS011;2286;51.570;7.090;2023-01-28T03:58:42;10.93;;;9.95;;
4547;SDS011;2286;51.570;7.090;2023-01-28T04:01:17;11.80;;;10.50;;
4547;SDS011;2286;51.570;7.090;2023-01-28T04:03:44;11.85;;;10.95;;
4547;SDS011;2286;51.570;7.090;2023-01-28T04:06:13;10.60;;;9.70;;
4547;SDS011;2286;51.570;7.090;2023-01-28T04:08:40;10.25;;;9.45;;
4547;SDS011;2286;51.570;7.090;2023-01-28T04:11:13;11.23;;;10.43;;
4547;SDS011;2286;51.570;7.090;2023-01-28T04:13:44;11.73;;;10.82;;
4547;SDS011;2286;51.570;7.090;2023-01-28T04:16:12;11.75;;;10.80;;
4547;SDS011;2286;51.570;7.090;2023-01-28T04:18:40;11.75;;;10.75;;
4547;SDS011;2286;51.570;7.090;2023-01-28T04:21:07;11.70;;;10.77;;
4547;SDS011;2286;51.570;7.090;2023-01-28T04:23:35;11.77;;;10.68;;
4547;SDS011;2286;51.570;7.090;2023-01-28T04:26:02;12.55;;;11.45;;
4547;SDS011;2286;51.570;7.090;2023-01-28T04:28:29;12.18;;;11.07;;
4547;SDS011;2286;51.570;7.090;2023-01-28T04:30:56;11.82;;;10.68;;
4547;SDS011;2286;51.570;7.090;2023-01-28T04:33:22;11.75;;;10.75;;
4547;SDS011;2286;51.570;7.090;2023-01-28T04:35:49;11.40;;;10.40;;
4547;SDS011;2286;51.570;7.090;2023-01-28T04:38:16;10.95;;;9.85;;
4547;SDS011;2286;51.570;7.090;2023-01-28T04:40:47;11.00;;;10.10;;
4547;SDS011;2286;51.570;7.090;2023-01-28T04:43:15;11.35;;;10.45;;
4547;SDS011;2286;51.570;7.090;2023-01-28T04:45:42;11.98;;;10.82;;
4547;SDS011;2286;51.570;7.090;2023-01-28T04:48:09;11.30;;;10.40;;
4547;SDS011;2286;51.570;7.090;2023-01-28T04:50:35;11.75;;;10.80;;
4547;SDS011;2286;51.570;7.090;2023-01-28T04:53:02;11.60;;;10.60;;
4547;SDS011;2286;51.570;7.090;2023-01-28T04:55:29;11.80;;;10.90;;
4547;SDS011;2286;51.570;7.090;2023-01-28T04:57:57;11.93;;;11.02;;
4547;SDS011;2286;51.570;7.090;2023-01-28T05:00:24;10.68;;;9.88;;
4547;SDS011;2286;51.570;7.090;2023-01-28T05:02:51;9.95;;;9.05;;
4547;SDS011;2286;51.570;7.090;2023-01-28T05:05:17;10.80;;;9.70;;
4547;SDS011;2286;51.570;7.090;2023-01-28T05:07:49;11.85;;;10.95;;
4547;SDS011;2286;51.570;7.090;2023-01-28T05:10:17;11.40;;;10.50;;
4547;SDS011;2286;51.570;7.090;2023-01-28T05:12:44;12.27;;;11.38;;
4547;SDS011;2286;51.570;7.090;2023-01-28T05:15:14;11.68;;;10.68;;
4547;SDS011;2286;51.570;7.090;2023-01-28T05:17:41;11.40;;;10.45;;
4547;SDS011;2286;51.570;7.090;2023-01-28T05:20:08;11.23;;;10.38;;
4547;SDS011;2286;51.570;7.090;2023-01-28T05:22:36;12.15;;;11.15;;
4547;SDS011;2286;51.570;7.090;2023-01-28T05:25:03;12.38;;;11.25;;
4547;SDS011;2286;51.570;7.090;2023-01-28T05:27:31;11.68;;;10.77;;
4547;SDS011;2286;51.570;7.090;2023-01-28T05:29:58;12.13;;;11.23;;
4547;SDS011;2286;51.570;7.090;2023-01-28T05:32:26;12.10;;;11.13;;
4547;SDS011;2286;51.570;7.090;2023-01-28T05:34:53;13.05;;;11.95;;
4547;SDS011;2286;51.570;7.090;2023-01-28T05:37:20;13.05;;;12.05;;
4547;SDS011;2286;51.570;7.090;2023-01-28T05:39:46;13.70;;;12.50;;
4547;SDS011;2286;51.570;7.090;2023-01-28T05:42:13;14.85;;;13.35;;
4547;SDS011;2286;51.570;7.090;2023-01-28T05:44:41;13.90;;;12.80;;
4547;SDS011;2286;51.570;7.090;2023-01-28T05:47:08;15.52;;;14.13;;
4547;SDS011;2286;51.570;7.090;2023-01-28T05:49:36;14.75;;;13.52;;
4547;SDS011;2286;51.570;7.090;2023-01-28T05:52:03;15.68;;;14.30;;
4547;SDS011;2286;51.570;7.090;2023-01-28T05:54:29;15.52;;;14.13;;
4547;SDS011;2286;51.570;7.090;2023-01-28T05:56:56;16.27;;;14.60;;
4547;SDS011;2286;51.570;7.090;2023-01-28T05:59:23;17.00;;;15.50;;
4547;SDS011;2286;51.570;7.090;2023-01-28T06:01:50;16.95;;;15.25;;
4547;SDS011;2286;51.570;7.090;2023-01-28T06:04:16;15.90;;;14.38;;
4547;SDS011;2286;51.570;7.090;2023-01-28T06:06:46;17.05;;;15.55;;
4547;SDS011;2286;51.570;7.090;2023-01-28T06:09:13;16.98;;;15.57;;
4547;SDS011;2286;51.570;7.090;2023-01-28T06:11:39;16.95;;;15.40;;
4547;SDS011;2286;51.570;7.090;2023-01-28T06:14:06;16.73;;;15.23;;
4547;SDS011;2286;51.570;7.090;2023-01-28T06:16:33;16.35;;;14.95;;
4547;SDS011;2286;51.570;7.090;2023-01-28T06:19:00;16.08;;;14.77;;
4547;SDS011;2286;51.570;7.090;2023-01-28T06:21:26;15.30;;;13.90;;
4547;SDS011;2286;51.570;7.090;2023-01-28T06:23:55;16.52;;;14.98;;
4547;SDS011;2286;51.570;7.090;2023-01-28T06:26:21;15.10;;;13.70;;
4547;SDS011;2286;51.570;7.090;2023-01-28T06:28:48;17.48;;;15.88;;
4547;SDS011;2286;51.570;7.090;2023-01-28T06:31:15;16.63;;;15.13;;
4547;SDS011;2286;51.570;7.090;2023-01-28T06:33:43;16.50;;;15.10;;
4547;SDS011;2286;51.570;7.090;2023-01-28T06:36:10;16.48;;;14.82;;
4547;SDS011;2286;51.570;7.090;2023-01-28T06:38:37;14.75;;;13.55;;
4547;SDS011;2286;51.570;7.090;2023-01-28T06:41:05;16.00;;;14.70;;
4547;SDS011;2286;51.570;7.090;2023-01-28T06:43:32;15.55;;;14.15;;
4547;SDS011;2286;51.570;7.090;2023-01-28T06:45:58;14.95;;;13.65;;
4547;SDS011;2286;51.570;7.090;2023-01-28T06:48:26;14.30;;;13.00;;
4547;SDS011;2286;51.570;7.090;2023-01-28T06:50:53;14.85;;;13.50;;
4547;SDS011;2286;51.570;7.090;2023-01-28T06:53:20;16.48;;;14.77;;
4547;SDS011;2286;51.570;7.090;2023-01-28T06:55:47;15.80;;;14.50;;
4547;SDS011;2286;51.570;7.090;2023-01-28T06:58:16;16.00;;;14.48;;
4547;SDS011;2286;51.570;7.090;2023-01-28T07:00:42;15.20;;;13.90;;
4547;SDS011;2286;51.570;7.090;2023-01-28T07:03:09;15.43;;;14.07;;
4547;SDS011;2286;51.570;7.090;2023-01-28T07:05:36;15.43;;;14.13;;
4547;SDS011;2286;51.570;7.090;2023-01-28T07:08:03;14.02;;;12.80;;
4547;SDS011;2286;51.570;7.090;2023-01-28T07:10:31;15.50;;;13.90;;
4547;SDS011;2286;51.570;7.090;2023-01-28T07:12:58;15.18;;;13.70;;
4547;SDS011;2286;51.570;7.090;2023-01-28T07:15:26;16.38;;;14.98;;
4547;SDS011;2286;51.570;7.090;2023-01-28T07:17:53;15.90;;;14.50;;
4547;SDS011;2286;51.570;7.090;2023-01-28T07:20:20;16.27;;;14.88;;
4547;SDS011;2286;51.570;7.090;2023-01-28T07:22:47;15.88;;;14.45;;
4547;SDS011;2286;51.570;7.090;2023-01-28T07:25:14;15.68;;;14.07;;
4547;SDS011;2286;51.570;7.090;2023-01-28T07:27:45;15.73;;;14.30;;
4547;SDS011;2286;51.570;7.090;2023-01-28T07:30:13;15.73;;;14.43;;
4547;SDS011;2286;51.570;7.090;2023-01-28T07:32:42;15.98;;;14.57;;
4547;SDS011;2286;51.570;7.090;2023-01-28T07:35:08;14.63;;;13.43;;
4547;SDS011;2286;51.570;7.090;2023-01-28T07:37:36;15.95;;;14.05;;
4547;SDS011;2286;51.570;7.090;2023-01-28T07:40:03;14.85;;;13.57;;
4547;SDS011;2286;51.570;7.090;2023-01-28T07:42:30;15.63;;;13.65;;
4547;SDS011;2286;51.570;7.090;2023-01-28T07:44:57;15.20;;;13.80;;
4547;SDS011;2286;51.570;7.090;2023-01-28T07:47:24;15.90;;;14.60;;
4547;SDS011;2286;51.570;7.090;2023-01-28T07:49:52;16.02;;;14.43;;
4547;SDS011;2286;51.570;7.090;2023-01-28T07:52:19;14.30;;;13.10;;
4547;SDS011;2286;51.570;7.090;2023-01-28T07:54:46;15.07;;;13.70;;
4547;SDS011;2286;51.570;7.090;2023-01-28T07:57:13;14.15;;;12.95;;
4547;SDS011;2286;51.570;7.090;2023-01-28T07:59:47;14.18;;;12.98;;
4547;SDS011;2286;51.570;7.090;2023-01-28T08:02:13;13.52;;;12.40;;
4547;SDS011;2286;51.570;7.090;2023-01-28T08:04:40;15.10;;;13.70;;
4547;SDS011;2286;51.570;7.090;2023-01-28T08:07:09;13.88;;;12.77;;
4547;SDS011;2286;51.570;7.090;2023-01-28T08:09:35;13.95;;;12.80;;
4547;SDS011;2286;51.570;7.090;2023-01-28T08:12:02;13.90;;;12.80;;
4547;SDS011;2286;51.570;7.090;2023-01-28T08:14:29;13.63;;;12.43;;
4547;SDS011;2286;51.570;7.090;2023-01-28T08:16:56;13.73;;;12.63;;
4547;SDS011;2286;51.570;7.090;2023-01-28T08:19:23;14.55;;;13.35;;
4547;SDS011;2286;51.570;7.090;2023-01-28T08:21:50;14.02;;;12.82;;
4547;SDS011;2286;51.570;7.090;2023-01-28T08:24:18;14.13;;;12.93;;
4547;SDS011;2286;51.570;7.090;2023-01-28T08:26:46;14.15;;;12.85;;
4547;SDS011;2286;51.570;7.090;2023-01-28T08:29:13;12.68;;;11.68;;
4547;SDS011;2286;51.570;7.090;2023-01-28T08:31:40;14.63;;;13.32;;
4547;SDS011;2286;51.570;7.090;2023-01-28T08:34:07;18.85;;;12.65;;
4547;SDS011;2286;51.570;7.090;2023-01-28T08:36:33;13.88;;;12.77;;
4547;SDS011;2286;51.570;7.090;2023-01-28T08:39:00;13.32;;;12.32;;
4547;SDS011;2286;51.570;7.090;2023-01-28T08:41:28;13.07;;;12.07;;
4547;SDS011;2286;51.570;7.090;2023-01-28T08:43:56;14.35;;;13.15;;
4547;SDS011;2286;51.570;7.090;2023-01-28T08:46:23;12.82;;;11.70;;
4547;SDS011;2286;51.570;7.090;2023-01-28T08:48:49;12.32;;;11.40;;
4547;SDS011;2286;51.570;7.090;2023-01-28T08:51:16;12.75;;;11.85;;
4547;SDS011;2286;51.570;7.090;2023-01-28T08:53:43;13.75;;;12.52;;
4547;SDS011;2286;51.570;7.090;2023-01-28T08:56:10;13.95;;;12.85;;
4547;SDS011;2286;51.570;7.090;2023-01-28T08:58:39;13.55;;;12.55;;
4547;SDS011;2286;51.570;7.090;2023-01-28T09:01:06;14.43;;;13.32;;
4547;SDS011;2286;51.570;7.090;2023-01-28T09:03:33;13.73;;;12.63;;
4547;SDS011;2286;51.570;7.090;2023-01-28T09:06:00;14.88;;;13.50;;
4547;SDS011;2286;51.570;7.090;2023-01-28T09:08:27;13.98;;;12.90;;
4547;SDS011;2286;51.570;7.090;2023-01-28T09:10:54;13.63;;;12.40;;
4547;SDS011;2286;51.570;7.090;2023-01-28T09:13:21;14.82;;;13.55;;
4547;SDS011;2286;51.570;7.090;2023-01-28T09:15:50;15.32;;;13.77;;
4547;SDS011;2286;51.570;7.090;2023-01-28T09:18:17;14.40;;;13.20;;
4547;SDS011;2286;51.570;7.090;2023-01-28T09:20:44;15.13;;;13.98;;
4547;SDS011;2286;51.570;7.090;2023-01-28T09:23:11;14.18;;;13.07;;
4547;SDS011;2286;51.570;7.090;2023-01-28T09:25:38;14.32;;;13.18;;
4547;SDS011;2286;51.570;7.090;2023-01-28T09:28:05;13.80;;;12.57;;
4547;SDS011;2286;51.570;7.090;2023-01-28T09:30:32;14.55;;;13.35;;
4547;SDS011;2286;51.570;7.090;2023-01-28T09:33:00;16.10;;;14.60;;
4547;SDS011;2286;51.570;7.090;2023-01-28T09:35:27;14.18;;;12.95;;
4547;SDS011;2286;51.570;7.090;2023-01-28T09:37:55;14.77;;;13.52;;
4547;SDS011;2286;51.570;7.090;2023-01-28T09:40:24;14.55;;;13.15;;
4547;SDS011;2286;51.570;7.090;2023-01-28T09:43:06;15.80;;;12.65;;
4547;SDS011;2286;51.570;7.090;2023-01-28T09:45:50;13.00;;;11.70;;
4547;SDS011;2286;51.570;7.090;2023-01-28T09:48:23;17.15;;;14.38;;
4547;SDS011;2286;51.570;7.090;2023-01-28T09:50:54;14.55;;;12.20;;
4547;SDS011;2286;51.570;7.090;2023-01-28T09:53:22;14.15;;;12.95;;
4547;SDS011;2286;51.570;7.090;2023-01-28T09:55:54;13.52;;;12.43;;
4547;SDS011;2286;51.570;7.090;2023-01-28T09:58:22;13.35;;;12.30;;
4547;SDS011;2286;51.570;7.090;2023-01-28T10:00:51;12.57;;;11.30;;
4547;SDS011;2286;51.570;7.090;2023-01-28T10:03:34;13.45;;;12.15;;
4547;SDS011;2286;51.570;7.090;2023-01-28T10:06:15;11.70;;;10.80;;
4547;SDS011;2286;51.570;7.090;2023-01-28T10:14:45;11.02;;;10.15;;
4547;SDS011;2286;51.570;7.090;2023-01-28T10:17:18;11.18;;;10.27;;
4547;SDS011;2286;51.570;7.090;2023-01-28T10:19:54;11.07;;;10.27;;
4547;SDS011;2286;51.570;7.090;2023-01-28T10:22:25;12.55;;;11.50;;
4547;SDS011;2286;51.570;7.090;2023-01-28T10:24:54;11.30;;;10.18;;
4547;SDS011;2286;51.570;7.090;2023-01-28T10:27:27;11.45;;;10.38;;
4547;SDS011;2286;51.570;7.090;2023-01-28T10:29:55;10.85;;;10.05;;
4547;SDS011;2286;51.570;7.090;2023-01-28T10:32:25;11.80;;;10.85;;
4547;SDS011;2286;51.570;7.090;2023-01-28T10:34:57;11.15;;;10.25;;
4547;SDS011;2286;51.570;7.090;2023-01-28T10:37:26;11.05;;;10.02;;
4547;SDS011;2286;51.570;7.090;2023-01-28T10:39:54;12.93;;;11.73;;
4547;SDS011;2286;51.570;7.090;2023-01-28T10:42:26;13.93;;;12.60;;
4547;SDS011;2286;51.570;7.090;2023-01-28T10:44:55;12.25;;;11.35;;
4547;SDS011;2286;51.570;7.090;2023-01-28T10:47:27;26.45;;;13.73;;
4547;SDS011;2286;51.570;7.090;2023-01-28T10:49:58;13.60;;;12.20;;
4547;SDS011;2286;51.570;7.090;2023-01-28T10:52:26;15.00;;;13.77;;
4547;SDS011;2286;51.570;7.090;2023-01-28T10:54:59;15.38;;;13.98;;
4547;SDS011;2286;51.570;7.090;2023-01-28T10:57:26;15.85;;;14.45;;
4547;SDS011;2286;51.570;7.090;2023-01-28T10:59:53;16.13;;;14.52;;
4547;SDS011;2286;51.570;7.090;2023-01-28T11:02:23;16.38;;;14.88;;
4547;SDS011;2286;51.570;7.090;2023-01-28T11:05:01;15.80;;;14.40;;
4547;SDS011;2286;51.570;7.090;2023-01-28T11:07:31;16.98;;;15.48;;
4547;SDS011;2286;51.570;7.090;2023-01-28T11:09:58;17.90;;;16.23;;
4547;SDS011;2286;51.570;7.090;2023-01-28T11:12:26;18.35;;;16.30;;
4547;SDS011;2286;51.570;7.090;2023-01-28T11:14:54;17.75;;;16.00;;
4547;SDS011;2286;51.570;7.090;2023-01-28T11:17:23;20.17;;;18.25;;
4547;SDS011;2286;51.570;7.090;2023-01-28T11:19:51;18.80;;;17.05;;
4547;SDS011;2286;51.570;7.090;2023-01-28T11:22:22;19.23;;;17.48;;
4547;SDS011;2286;51.570;7.090;2023-01-28T11:24:54;18.38;;;16.45;;
4547;SDS011;2286;51.570;7.090;2023-01-28T11:27:22;17.90;;;16.30;;
4547;SDS011;2286;51.570;7.090;2023-01-28T11:29:55;16.35;;;14.95;;
4547;SDS011;2286;51.570;7.090;2023-01-28T11:32:26;16.08;;;14.57;;
4547;SDS011;2286;51.570;7.090;2023-01-28T11:34:54;17.58;;;16.00;;
4547;SDS011;2286;51.570;7.090;2023-01-28T11:37:25;17.55;;;16.00;;
4547;SDS011;2286;51.570;7.090;2023-01-28T11:40:00;17.20;;;15.65;;
4547;SDS011;2286;51.570;7.090;2023-01-28T11:42:28;16.25;;;14.85;;
4547;SDS011;2286;51.570;7.090;2023-01-28T11:44:56;17.23;;;15.60;;
4547;SDS011;2286;51.570;7.090;2023-01-28T11:50:28;15.80;;;14.40;;
4547;SDS011;2286;51.570;7.090;2023-01-28T11:53:10;16.23;;;14.73;;
4547;SDS011;2286;51.570;7.090;2023-01-28T11:56:11;16.20;;;14.70;;
4547;SDS011;2286;51.570;7.090;2023-01-28T11:58:54;16.83;;;15.13;;
4547;SDS011;2286;51.570;7.090;2023-01-28T12:01:28;16.10;;;14.60;;
4547;SDS011;2286;51.570;7.090;2023-01-28T12:04:10;16.65;;;15.15;;
4547;SDS011;2286;51.570;7.090;2023-01-28T12:07:02;16.73;;;15.23;;
4547;SDS011;2286;51.570;7.090;2023-01-28T12:09:46;15.98;;;14.50;;
4547;SDS011;2286;51.570;7.090;2023-01-28T12:12:22;16.88;;;15.38;;
4547;SDS011;2286;51.570;7.090;2023-01-28T12:15:15;16.20;;;14.80;;
4547;SDS011;2286;51.570;7.090;2023-01-28T12:18:08;15.30;;;14.10;;
4547;SDS011;2286;51.570;7.090;2023-01-28T12:20:45;15.77;;;14.38;;
4547;SDS011;2286;51.570;7.090;2023-01-28T12:23:21;16.00;;;14.32;;
4547;SDS011;2286;51.570;7.090;2023-01-28T12:26:03;15.97;;;14.57;;
4547;SDS011;2286;51.570;7.090;2023-01-28T12:28:38;15.53;;;14.13;;
4547;SDS011;2286;51.570;7.090;2023-01-28T12:31:25;14.90;;;13.60;;
4547;SDS011;2286;51.570;7.090;2023-01-28T12:34:17;17.10;;;14.57;;
4547;SDS011;2286;51.570;7.090;2023-01-28T12:37:07;15.83;;;14.37;;
4547;SDS011;2286;51.570;7.090;2023-01-28T12:39:43;15.43;;;14.00;;
4547;SDS011;2286;51.570;7.090;2023-01-28T12:42:21;15.53;;;14.03;;
4547;SDS011;2286;51.570;7.090;2023-01-28T12:44:58;14.67;;;13.17;;
4547;SDS011;2286;51.570;7.090;2023-01-28T12:47:30;14.80;;;13.30;;
4547;SDS011;2286;51.570;7.090;2023-01-28T12:50:02;14.07;;;12.90;;
4547;SDS011;2286;51.570;7.090;2023-01-28T12:52:37;12.73;;;11.73;;
4547;SDS011;2286;51.570;7.090;2023-01-28T12:55:10;13.10;;;11.90;;
4547;SDS011;2286;51.570;7.090;2023-01-28T12:57:42;13.00;;;11.87;;
4547;SDS011;2286;51.570;7.090;2023-01-28T13:00:14;14.20;;;13.17;;
4547;SDS011;2286;51.570;7.090;2023-01-28T13:02:49;14.50;;;13.17;;
4547;SDS011;2286;51.570;7.090;2023-01-28T13:05:24;13.00;;;11.90;;
4547;SDS011;2286;51.570;7.090;2023-01-28T13:07:58;14.20;;;12.90;;
4547;SDS011;2286;51.570;7.090;2023-01-28T13:10:33;13.50;;;12.33;;
4547;SDS011;2286;51.570;7.090;2023-01-28T13:13:05;14.47;;;13.07;;
4547;SDS011;2286;51.570;7.090;2023-01-28T13:15:32;15.30;;;13.97;;
4547;SDS011;2286;51.570;7.090;2023-01-28T13:20:58;14.47;;;13.13;;
4547;SDS011;2286;51.570;7.090;2023-01-28T13:23:37;16.73;;;15.03;;
4547;SDS011;2286;51.570;7.090;2023-01-28T13:26:10;16.30;;;14.77;;
4547;SDS011;2286;51.570;7.090;2023-01-28T13:29:05;15.83;;;14.43;;
4547;SDS011;2286;51.570;7.090;2023-01-28T13:31:41;17.10;;;15.40;;
4547;SDS011;2286;51.570;7.090;2023-01-28T13:34:26;15.93;;;14.43;;
4547;SDS011;2286;51.570;7.090;2023-01-28T13:36:59;16.90;;;15.50;;
4547;SDS011;2286;51.570;7.090;2023-01-28T13:39:29;16.43;;;14.87;;
4547;SDS011;2286;51.570;7.090;2023-01-28T13:42:09;16.30;;;14.80;;
4547;SDS011;2286;51.570;7.090;2023-01-28T13:44:48;16.70;;;15.17;;
4547;SDS011;2286;51.570;7.090;2023-01-28T13:47:19;16.00;;;14.60;;
4547;SDS011;2286;51.570;7.090;2023-01-28T13:49:55;15.97;;;14.53;;
4547;SDS011;2286;51.570;7.090;2023-01-28T13:52:28;15.30;;;13.90;;
4547;SDS011;2286;51.570;7.090;2023-01-28T13:54:59;15.77;;;14.37;;
4547;SDS011;2286;51.570;7.090;2023-01-28T14:00:50;15.40;;;14.23;;
4547;SDS011;2286;51.570;7.090;2023-01-28T14:03:46;14.60;;;13.40;;
4547;SDS011;2286;51.570;7.090;2023-01-28T14:06:31;14.80;;;13.70;;
4547;SDS011;2286;51.570;7.090;2023-01-28T14:09:24;15.50;;;14.30;;
4547;SDS011;2286;51.570;7.090;2023-01-28T14:12:06;14.50;;;13.40;;
4547;SDS011;2286;51.570;7.090;2023-01-28T14:14:56;14.40;;;13.40;;
4547;SDS011;2286;51.570;7.090;2023-01-28T14:17:40;15.10;;;13.90;;
4547;SDS011;2286;51.570;7.090;2023-01-28T14:20:13;16.23;;;14.73;;
4547;SDS011;2286;51.570;7.090;2023-01-28T14:22:44;16.37;;;14.97;;
4547;SDS011;2286;51.570;7.090;2023-01-28T14:25:13;15.63;;;14.33;;
4547;SDS011;2286;51.570;7.090;2023-01-28T14:27:44;15.60;;;14.40;;
4547;SDS011;2286;51.570;7.090;2023-01-28T14:30:17;15.73;;;14.63;;
4547;SDS011;2286;51.570;7.090;2023-01-28T14:32:50;15.00;;;13.70;;
4547;SDS011;2286;51.570;7.090;2023-01-28T14:35:21;14.70;;;13.60;;
4547;SDS011;2286;51.570;7.090;2023-01-28T14:37:52;15.17;;;13.97;;
4547;SDS011;2286;51.570;7.090;2023-01-28T14:40:20;15.93;;;14.53;;
4547;SDS011;2286;51.570;7.090;2023-01-28T14:42:47;16.80;;;15.40;;
4547;SDS011;2286;51.570;7.090;2023-01-28T14:45:21;15.83;;;14.40;;
4547;SDS011;2286;51.570;7.090;2023-01-28T14:48:04;15.53;;;14.33;;
4547;SDS011;2286;51.570;7.090;2023-01-28T14:50:45;15.20;;;14.10;;
4547;SDS011;2286;51.570;7.090;2023-01-28T14:53:37;15.70;;;14.50;;
4547;SDS011;2286;51.570;7.090;2023-01-28T14:56:27;17.30;;;15.80;;
4547;SDS011;2286;51.570;7.090;2023-01-28T14:59:04;17.63;;;16.17;;
4547;SDS011;2286;51.570;7.090;2023-01-28T15:01:42;17.30;;;15.80;;
4547;SDS011;2286;51.570;7.090;2023-01-28T15:04:21;16.73;;;15.23;;
4547;SDS011;2286;51.570;7.090;2023-01-28T15:06:49;17.33;;;15.83;;
4547;SDS011;2286;51.570;7.090;2023-01-28T15:09:16;17.13;;;15.73;;
4547;SDS011;2286;51.570;7.090;2023-01-28T15:11:44;17.33;;;15.67;;
4547;SDS011;2286;51.570;7.090;2023-01-28T15:14:18;16.20;;;14.90;;
4547;SDS011;2286;51.570;7.090;2023-01-28T15:16:50;16.70;;;15.13;;
4547;SDS011;2286;51.570;7.090;2023-01-28T15:19:17;17.17;;;15.67;;
4547;SDS011;2286;51.570;7.090;2023-01-28T15:21:52;19.27;;;16.00;;
4547;SDS011;2286;51.570;7.090;2023-01-28T15:24:20;18.10;;;15.97;;
4547;SDS011;2286;51.570;7.090;2023-01-28T15:26:47;18.20;;;16.60;;
4547;SDS011;2286;51.570;7.090;2023-01-28T15:29:24;17.47;;;15.87;;
4547;SDS011;2286;51.570;7.090;2023-01-28T15:31:52;18.40;;;16.70;;
4547;SDS011;2286;51.570;7.090;2023-01-28T15:34:19;18.47;;;16.87;;
4547;SDS011;2286;51.570;7.090;2023-01-28T15:36:48;18.87;;;17.27;;
4547;SDS011;2286;51.570;7.090;2023-01-28T15:39:16;19.27;;;17.57;;